Time;durP1;ratioP1;P1;durP2;ratioP2;P2;SDS_P1;SDS_P2;PMS_P1;PMS_P2;Temp;Humidity;BMP_temperature;BMP_pressure;BME280_temperature;BME280_humidity;BME280_pressure;Samples;Min_cycle;Max_cycle;Signal;HPM_P1;HPM_P2
2022/10/10 00:01:35;;;;;;;;;;;9.40;99.90;;;;;;5090845;28;20311;-76
2022/10/10 00:04:02;;;;;;;;;;;9.40;99.90;;;;;;5107174;28;19908;-73
2022/10/10 00:06:27;;;;;;;;;;;9.40;99.90;;;;;;5104885;28;19923;-73
2022/10/10 00:08:53;;;;;;;;;;;9.30;99.90;;;;;;5102263;28;19916;-74
2022/10/10 00:11:19;;;;;;;;;;;9.30;99.90;;;;;;5072619;28;19912;-73
2022/10/10 00:13:45;;;;;;;;;;;9.30;99.90;;;;;;5101715;28;19920;-73
2022/10/10 00:16:11;;;;;;;;;;;9.20;99.90;;;;;;5106306;28;19911;-73
2022/10/10 00:18:37;;;;;;;;;;;9.20;99.90;;;;;;5094947;28;19916;-77
2022/10/10 00:21:03;;;;;;;;;;;9.20;99.90;;;;;;5094802;28;20223;-74
2022/10/10 00:23:28;;;;;;;;;;;9.20;99.90;;;;;;5095620;28;19912;-74
2022/10/10 00:25:54;;;;;;;;;;;9.20;99.90;;;;;;5094025;28;19965;-73
2022/10/10 00:28:19;;;;;;;;;;;9.20;99.90;;;;;;5091144;28;20486;-74
2022/10/10 00:30:45;;;;;;;;;;;9.20;99.90;;;;;;5066982;28;19913;-74
2022/10/10 00:33:11;;;;;;;;;;;9.10;99.90;;;;;;5077259;28;19919;-74
2022/10/10 00:35:36;;;;;;;;;;;9.10;99.90;;;;;;5096307;28;20100;-77
2022/10/10 00:38:02;;;;;;;;;;;9.10;99.90;;;;;;5076350;28;19995;-73
2022/10/10 00:40:28;;;;;;;;;;;9.00;99.90;;;;;;5095375;28;19912;-73
2022/10/10 00:42:54;;;;;;;;;;;9.00;99.90;;;;;;5090589;28;20046;-74
2022/10/10 00:45:28;;;;;;;;;;;9.00;99.90;;;;;;5084802;28;20006;-73
2022/10/10 00:47:56;;;;;;;;;;;9.00;99.90;;;;;;5093512;28;19921;-73
2022/10/10 00:50:22;;;;;;;;;;;8.90;99.90;;;;;;5079952;28;20337;-74
2022/10/10 00:52:48;;;;;;;;;;;9.00;99.90;;;;;;5074685;28;20215;-74
2022/10/10 00:55:13;;;;;;;;;;;8.90;99.90;;;;;;5100789;28;19912;-73
2022/10/10 00:57:39;;;;;;;;;;;8.90;99.90;;;;;;5092122;28;19916;-73
2022/10/10 01:00:05;;;;;;;;;;;8.90;99.90;;;;;;5091568;28;19908;-77
2022/10/10 01:02:31;;;;;;;;;;;8.90;99.90;;;;;;5095974;28;19956;-74
2022/10/10 01:04:56;;;;;;;;;;;8.90;99.90;;;;;;5091537;28;19959;-73
2022/10/10 01:07:24;;;;;;;;;;;8.90;99.90;;;;;;5087137;28;19915;-73
2022/10/10 01:09:50;;;;;;;;;;;8.90;99.90;;;;;;5077706;28;19923;-75
2022/10/10 01:12:25;;;;;;;;;;;8.90;99.90;;;;;;5097173;28;20188;-73
2022/10/10 01:14:59;;;;;;;;;;;8.90;99.90;;;;;;5091304;28;19912;-73
2022/10/10 01:17:31;;;;;;;;;;;8.80;99.90;;;;;;5101332;28;19919;-74
2022/10/10 01:20:06;;;;;;;;;;;8.90;99.90;;;;;;5091356;28;20289;-74
2022/10/10 01:22:37;;;;;;;;;;;8.90;99.90;;;;;;5065653;28;19927;-74
2022/10/10 01:25:21;;;;;;;;;;;8.90;99.90;;;;;;5085124;28;19941;-74
2022/10/10 01:27:51;;;;;;;;;;;8.90;99.90;;;;;;5076168;28;20014;-77
2022/10/10 01:30:20;;;;;;;;;;;8.90;99.90;;;;;;5061288;28;19915;-73
2022/10/10 01:32:45;;;;;;;;;;;8.90;99.90;;;;;;5095510;28;19947;-74
2022/10/10 01:35:24;;;;;;;;;;;8.90;99.90;;;;;;5076453;28;19979;-73
2022/10/10 01:37:49;;;;;;;;;;;8.80;99.90;;;;;;5097582;28;19957;-73
2022/10/10 01:40:35;;;;;;;;;;;8.80;99.90;;;;;;5095879;28;19912;-74
2022/10/10 01:43:02;;;;;;;;;;;8.80;99.90;;;;;;5051127;28;19958;-74
2022/10/10 01:45:30;;;;;;;;;;;8.80;99.90;;;;;;5088849;28;20354;-73
2022/10/10 01:47:58;;;;;;;;;;;8.80;99.90;;;;;;5100104;28;20693;-74
2022/10/10 01:50:25;;;;;;;;;;;8.80;99.90;;;;;;5090681;28;19965;-73
2022/10/10 01:52:53;;;;;;;;;;;8.80;99.90;;;;;;5098487;28;19916;-74
2022/10/10 01:55:27;;;;;;;;;;;8.80;99.90;;;;;;5088354;28;19920;-74
2022/10/10 01:57:55;;;;;;;;;;;8.80;99.90;;;;;;5095922;28;19916;-74
2022/10/10 02:00:21;;;;;;;;;;;8.80;99.90;;;;;;5088315;28;19920;-75
2022/10/10 02:02:46;;;;;;;;;;;8.80;99.90;;;;;;5098820;28;19912;-74
2022/10/10 02:05:18;;;;;;;;;;;8.80;99.90;;;;;;5087845;28;19927;-73
2022/10/10 02:07:48;;;;;;;;;;;8.70;99.90;;;;;;5062296;28;19920;-73
2022/10/10 02:10:15;;;;;;;;;;;8.80;99.90;;;;;;5095338;28;19916;-73
2022/10/10 02:12:40;;;;;;;;;;;8.80;99.90;;;;;;5102672;28;19920;-73
2022/10/10 02:15:11;;;;;;;;;;;8.80;99.90;;;;;;5096747;28;20415;-73
2022/10/10 02:17:38;;;;;;;;;;;8.80;99.90;;;;;;5074156;28;19916;-74
2022/10/10 02:20:04;;;;;;;;;;;8.80;99.90;;;;;;5096792;28;19915;-74
2022/10/10 02:22:30;;;;;;;;;;;8.80;99.90;;;;;;5099072;28;19916;-73
2022/10/10 02:24:55;;;;;;;;;;;8.80;99.90;;;;;;5079728;28;19915;-77
2022/10/10 02:27:33;;;;;;;;;;;8.80;99.90;;;;;;5096426;28;19916;-72
2022/10/10 02:29:58;;;;;;;;;;;8.80;99.90;;;;;;5096329;28;19916;-73
2022/10/10 02:32:42;;;;;;;;;;;8.80;99.90;;;;;;5100292;28;21238;-76
2022/10/10 02:35:20;;;;;;;;;;;8.80;99.90;;;;;;5100074;28;19958;-74
2022/10/10 02:37:47;;;;;;;;;;;8.80;99.90;;;;;;5096011;28;19912;-78
2022/10/10 02:40:15;;;;;;;;;;;8.80;99.90;;;;;;5098215;28;19920;-74
2022/10/10 02:42:41;;;;;;;;;;;8.80;99.90;;;;;;5096145;28;19908;-74
2022/10/10 02:45:07;;;;;;;;;;;8.80;99.90;;;;;;5093907;28;20016;-74
2022/10/10 02:47:32;;;;;;;;;;;8.80;99.90;;;;;;5087049;28;20329;-73
2022/10/10 02:49:58;;;;;;;;;;;8.70;99.90;;;;;;5081061;28;20276;-73
2022/10/10 02:52:23;;;;;;;;;;;8.70;99.90;;;;;;5095585;28;20007;-74
2022/10/10 02:54:49;;;;;;;;;;;8.70;99.90;;;;;;5098049;28;19920;-77
2022/10/10 02:57:14;;;;;;;;;;;8.80;99.90;;;;;;5081387;28;19935;-72
2022/10/10 02:59:40;;;;;;;;;;;8.70;99.90;;;;;;5102931;28;20341;-73
2022/10/10 03:02:06;;;;;;;;;;;8.70;99.90;;;;;;5101440;28;19919;-73
2022/10/10 03:04:33;;;;;;;;;;;8.70;99.90;;;;;;5087070;28;19923;-74
2022/10/10 03:06:58;;;;;;;;;;;8.60;99.90;;;;;;5097712;28;20053;-73
2022/10/10 03:09:24;;;;;;;;;;;8.60;99.90;;;;;;5095382;28;20003;-72
2022/10/10 03:11:49;;;;;;;;;;;8.50;99.90;;;;;;5099614;28;20003;-73
2022/10/10 03:14:15;;;;;;;;;;;8.50;99.90;;;;;;5096834;28;20276;-73
2022/10/10 03:16:40;;;;;;;;;;;8.40;99.90;;;;;;5104023;28;19958;-72
2022/10/10 03:19:07;;;;;;;;;;;8.40;99.90;;;;;;5092364;28;20018;-72
2022/10/10 03:21:33;;;;;;;;;;;8.40;99.90;;;;;;5071813;28;19998;-73
2022/10/10 03:23:59;;;;;;;;;;;8.30;99.90;;;;;;5099627;28;19915;-73
2022/10/10 03:26:24;;;;;;;;;;;8.30;99.90;;;;;;5081000;28;19908;-72
2022/10/10 03:28:50;;;;;;;;;;;8.20;99.90;;;;;;5097763;28;19920;-72
2022/10/10 03:31:16;;;;;;;;;;;8.20;99.90;;;;;;5095591;28;20014;-74
2022/10/10 03:33:42;;;;;;;;;;;8.20;99.90;;;;;;5097737;28;20000;-72
2022/10/10 03:36:07;;;;;;;;;;;8.20;99.90;;;;;;5087311;28;19919;-74
2022/10/10 03:38:33;;;;;;;;;;;8.20;99.90;;;;;;5080628;28;19919;-72
2022/10/10 03:40:58;;;;;;;;;;;8.20;99.90;;;;;;5095439;28;19912;-73
2022/10/10 03:43:24;;;;;;;;;;;8.20;99.90;;;;;;5078630;28;20318;-72
2022/10/10 03:45:49;;;;;;;;;;;8.10;99.90;;;;;;5100480;28;19935;-72
2022/10/10 03:48:15;;;;;;;;;;;8.10;99.90;;;;;;5092815;28;20323;-73
2022/10/10 03:50:40;;;;;;;;;;;8.10;99.90;;;;;;5101072;28;19923;-72
2022/10/10 03:53:06;;;;;;;;;;;8.10;99.90;;;;;;5107418;28;19927;-73
2022/10/10 03:55:32;;;;;;;;;;;8.10;99.90;;;;;;5102135;28;20200;-73
2022/10/10 03:57:57;;;;;;;;;;;8.10;99.90;;;;;;5099232;28;19931;-73
2022/10/10 04:00:23;;;;;;;;;;;8.10;99.90;;;;;;5099156;28;19912;-74
2022/10/10 04:02:48;;;;;;;;;;;8.00;99.90;;;;;;5096501;28;19953;-73
2022/10/10 04:05:14;;;;;;;;;;;8.10;99.90;;;;;;5083174;28;19970;-77
2022/10/10 04:07:41;;;;;;;;;;;8.10;99.90;;;;;;5096441;28;19920;-73
2022/10/10 04:10:07;;;;;;;;;;;8.10;99.90;;;;;;5093658;28;19954;-73
2022/10/10 04:12:32;;;;;;;;;;;8.00;99.90;;;;;;5079010;28;20306;-73
2022/10/10 04:14:58;;;;;;;;;;;8.10;99.90;;;;;;5088116;28;19919;-72
2022/10/10 04:17:24;;;;;;;;;;;8.00;99.90;;;;;;5095604;28;19918;-73
2022/10/10 04:19:49;;;;;;;;;;;8.00;99.90;;;;;;5078940;28;20319;-73
2022/10/10 04:22:15;;;;;;;;;;;8.00;99.90;;;;;;5097926;28;19969;-73
2022/10/10 04:24:41;;;;;;;;;;;8.00;99.90;;;;;;5065096;28;20008;-73
2022/10/10 04:27:06;;;;;;;;;;;8.00;99.90;;;;;;5093055;28;19972;-74
2022/10/10 04:29:32;;;;;;;;;;;8.10;99.90;;;;;;5093501;28;20217;-73
2022/10/10 04:31:57;;;;;;;;;;;8.00;99.90;;;;;;5097973;28;19909;-72
2022/10/10 04:34:23;;;;;;;;;;;8.10;99.90;;;;;;5095855;28;19987;-74
2022/10/10 04:36:48;;;;;;;;;;;8.10;99.90;;;;;;5098639;28;19909;-73
2022/10/10 04:39:14;;;;;;;;;;;8.10;99.90;;;;;;5079665;28;19933;-75
2022/10/10 04:41:39;;;;;;;;;;;8.10;99.90;;;;;;5097386;28;19957;-73
2022/10/10 04:44:05;;;;;;;;;;;8.10;99.90;;;;;;5097036;28;19909;-73
2022/10/10 04:46:30;;;;;;;;;;;8.10;99.90;;;;;;5087611;28;19916;-74
2022/10/10 04:48:56;;;;;;;;;;;8.10;99.90;;;;;;5100265;28;20679;-76
2022/10/10 04:51:21;;;;;;;;;;;8.10;99.90;;;;;;5099643;28;19956;-73
2022/10/10 04:53:47;;;;;;;;;;;8.10;99.90;;;;;;5059770;28;19973;-74
2022/10/10 04:56:12;;;;;;;;;;;8.10;99.90;;;;;;5081469;28;19958;-73
2022/10/10 04:58:38;;;;;;;;;;;8.10;99.90;;;;;;5092378;28;20011;-77
2022/10/10 05:01:03;;;;;;;;;;;8.10;99.90;;;;;;5068900;28;19915;-74
2022/10/10 05:03:29;;;;;;;;;;;8.10;99.90;;;;;;5093597;28;19923;-73
2022/10/10 05:05:54;;;;;;;;;;;8.10;99.90;;;;;;5092532;28;19939;-74
2022/10/10 05:08:20;;;;;;;;;;;8.10;99.90;;;;;;5101461;28;20329;-74
2022/10/10 05:10:45;;;;;;;;;;;8.10;99.90;;;;;;5098455;28;19912;-78
2022/10/10 05:13:12;;;;;;;;;;;8.10;99.90;;;;;;5095475;28;19911;-74
2022/10/10 05:15:38;;;;;;;;;;;8.10;99.90;;;;;;5098443;28;19916;-77
2022/10/10 05:18:03;;;;;;;;;;;8.00;99.90;;;;;;5086238;28;20023;-74
2022/10/10 05:20:29;;;;;;;;;;;8.00;99.90;;;;;;5104676;28;19916;-73
2022/10/10 05:22:55;;;;;;;;;;;8.00;99.90;;;;;;5105035;28;19963;-74
2022/10/10 05:25:20;;;;;;;;;;;8.00;99.90;;;;;;5094399;28;19912;-74
2022/10/10 05:27:46;;;;;;;;;;;8.00;99.90;;;;;;5107502;28;19920;-73
2022/10/10 05:30:12;;;;;;;;;;;7.90;99.90;;;;;;5100435;28;20192;-73
2022/10/10 05:32:37;;;;;;;;;;;7.90;99.90;;;;;;5093676;28;19940;-74
2022/10/10 05:35:03;;;;;;;;;;;7.90;99.90;;;;;;5084102;28;19912;-74
2022/10/10 05:37:29;;;;;;;;;;;7.90;99.90;;;;;;5090723;28;19912;-74
2022/10/10 05:39:55;;;;;;;;;;;7.90;99.90;;;;;;5105024;28;19922;-74
2022/10/10 05:42:20;;;;;;;;;;;7.90;99.90;;;;;;5097184;28;20003;-74
2022/10/10 05:44:46;;;;;;;;;;;7.90;99.90;;;;;;5096154;28;19972;-74
2022/10/10 05:47:11;;;;;;;;;;;7.90;99.90;;;;;;5082484;28;19958;-73
2022/10/10 05:49:37;;;;;;;;;;;7.90;99.90;;;;;;5086490;28;20027;-74
2022/10/10 05:52:02;;;;;;;;;;;7.90;99.90;;;;;;5100744;28;19916;-74
2022/10/10 05:54:28;;;;;;;;;;;7.90;99.90;;;;;;5100429;28;20238;-74
2022/10/10 05:56:53;;;;;;;;;;;7.90;99.90;;;;;;5100339;28;19958;-74
2022/10/10 05:59:19;;;;;;;;;;;7.80;99.90;;;;;;5094427;28;19999;-74
2022/10/10 06:01:44;;;;;;;;;;;7.80;99.90;;;;;;5096226;28;20054;-75
2022/10/10 06:04:10;;;;;;;;;;;7.80;99.90;;;;;;5101660;28;20056;-74
2022/10/10 06:06:35;;;;;;;;;;;7.80;99.90;;;;;;5109404;28;19990;-74
2022/10/10 06:09:01;;;;;;;;;;;7.80;99.90;;;;;;5107050;28;19912;-74
2022/10/10 06:11:28;;;;;;;;;;;7.80;99.90;;;;;;5084657;28;20025;-73
2022/10/10 06:13:54;;;;;;;;;;;7.80;99.90;;;;;;5097029;28;19973;-74
2022/10/10 06:16:20;;;;;;;;;;;7.80;99.90;;;;;;5097186;28;19916;-73
2022/10/10 06:18:46;;;;;;;;;;;7.80;99.90;;;;;;5091042;28;19912;-75
2022/10/10 06:21:11;;;;;;;;;;;7.90;99.90;;;;;;5098993;28;19943;-74
2022/10/10 06:23:37;;;;;;;;;;;7.80;99.90;;;;;;5092250;28;19916;-74
2022/10/10 06:26:03;;;;;;;;;;;7.90;99.90;;;;;;5100653;28;19975;-74
2022/10/10 06:28:29;;;;;;;;;;;7.90;99.90;;;;;;5097871;28;19923;-74
2022/10/10 06:30:57;;;;;;;;;;;8.00;99.90;;;;;;5091476;28;20017;-74
2022/10/10 06:33:23;;;;;;;;;;;8.00;99.90;;;;;;5072545;28;19944;-74
2022/10/10 06:35:48;;;;;;;;;;;8.10;99.90;;;;;;5074523;28;20286;-74
2022/10/10 06:38:15;;;;;;;;;;;8.20;99.90;;;;;;5103596;28;19995;-73
2022/10/10 06:40:40;;;;;;;;;;;8.20;99.90;;;;;;5087807;28;19919;-73
2022/10/10 06:43:10;;;;;;;;;;;8.30;99.90;;;;;;5093729;28;20027;-73
2022/10/10 06:45:37;;;;;;;;;;;8.40;99.90;;;;;;5107251;28;19959;-74
2022/10/10 06:48:02;;;;;;;;;;;8.40;99.90;;;;;;5108998;28;19969;-74
2022/10/10 06:50:28;;;;;;;;;;;8.50;99.90;;;;;;5106915;28;19915;-74
2022/10/10 06:52:53;;;;;;;;;;;8.60;99.90;;;;;;5107261;28;19912;-74
2022/10/10 06:55:19;;;;;;;;;;;8.70;99.90;;;;;;5104271;28;19916;-74
2022/10/10 06:57:44;;;;;;;;;;;8.80;99.90;;;;;;5094650;28;19955;-74
2022/10/10 07:00:11;;;;;;;;;;;9.10;99.90;;;;;;5087935;28;19912;-75
2022/10/10 07:02:39;;;;;;;;;;;9.50;99.90;;;;;;5105981;28;20313;-74
2022/10/10 07:05:15;;;;;;;;;;;9.90;99.90;;;;;;5105860;28;19912;-78
2022/10/10 07:07:41;;;;;;;;;;;10.50;99.90;;;;;;5108521;28;19923;-74
2022/10/10 07:10:07;;;;;;;;;;;10.90;99.90;;;;;;5111750;28;19912;-74
2022/10/10 07:12:33;;;;;;;;;;;11.10;99.90;;;;;;5110675;28;19915;-74
2022/10/10 07:14:58;;;;;;;;;;;11.30;99.90;;;;;;5101499;28;19964;-74
2022/10/10 07:17:24;;;;;;;;;;;11.50;99.90;;;;;;5091504;28;19998;-74
2022/10/10 07:19:49;;;;;;;;;;;11.90;99.90;;;;;;5110614;28;20225;-74
2022/10/10 07:22:15;;;;;;;;;;;12.20;99.90;;;;;;5107241;28;20030;-75
2022/10/10 07:24:40;;;;;;;;;;;12.30;99.90;;;;;;5105435;28;19912;-77
2022/10/10 07:27:06;;;;;;;;;;;12.50;99.90;;;;;;5108749;28;19916;-75
2022/10/10 07:29:32;;;;;;;;;;;12.80;99.90;;;;;;5114967;28;19933;-73
2022/10/10 07:31:58;;;;;;;;;;;13.20;99.90;;;;;;5108650;28;20007;-74
2022/10/10 07:34:23;;;;;;;;;;;13.50;99.90;;;;;;5085028;28;20047;-74
2022/10/10 07:36:49;;;;;;;;;;;13.90;99.90;;;;;;5091325;28;20021;-74
2022/10/10 07:39:22;;;;;;;;;;;14.20;99.90;;;;;;5101793;28;19918;-74
2022/10/10 07:41:48;;;;;;;;;;;14.30;99.90;;;;;;5107544;28;19912;-75
2022/10/10 07:44:14;;;;;;;;;;;14.10;99.90;;;;;;5112326;28;19908;-75
2022/10/10 07:46:39;;;;;;;;;;;14.00;99.90;;;;;;5093429;28;19998;-74
2022/10/10 07:49:05;;;;;;;;;;;13.90;99.90;;;;;;5110981;28;19920;-74
2022/10/10 07:51:30;;;;;;;;;;;13.80;99.90;;;;;;5111332;28;19916;-74
2022/10/10 07:53:56;;;;;;;;;;;14.00;99.90;;;;;;5112484;28;19908;-75
2022/10/10 07:56:22;;;;;;;;;;;14.20;99.90;;;;;;5102823;28;20234;-74
2022/10/10 07:58:48;;;;;;;;;;;14.30;99.90;;;;;;5092203;28;19908;-74
2022/10/10 08:01:13;;;;;;;;;;;14.20;99.90;;;;;;5094164;28;19923;-78
2022/10/10 08:03:39;;;;;;;;;;;14.20;99.90;;;;;;5094769;28;20284;-75
2022/10/10 08:06:05;;;;;;;;;;;14.10;99.90;;;;;;5095184;28;19912;-75
2022/10/10 08:08:31;;;;;;;;;;;14.10;99.90;;;;;;5097152;28;20215;-74
2022/10/10 08:10:57;;;;;;;;;;;14.00;99.90;;;;;;5101340;28;19911;-74
2022/10/10 08:13:23;;;;;;;;;;;13.80;99.90;;;;;;5097804;28;19964;-73
2022/10/10 08:15:52;;;;;;;;;;;13.60;99.90;;;;;;5077730;28;20021;-73
2022/10/10 08:18:17;;;;;;;;;;;13.40;99.90;;;;;;5093882;28;19920;-76
2022/10/10 08:20:43;;;;;;;;;;;13.30;99.90;;;;;;5098957;28;19915;-73
2022/10/10 08:23:08;;;;;;;;;;;13.20;99.90;;;;;;5083931;28;20215;-73
2022/10/10 08:25:34;;;;;;;;;;;13.10;99.90;;;;;;5100210;28;19954;-73
2022/10/10 08:27:59;;;;;;;;;;;13.00;99.90;;;;;;5094061;28;20023;-78
2022/10/10 08:30:25;;;;;;;;;;;12.90;99.90;;;;;;5096883;28;19966;-73
2022/10/10 08:32:50;;;;;;;;;;;12.80;99.90;;;;;;5093328;28;19919;-73
2022/10/10 08:35:16;;;;;;;;;;;12.80;99.90;;;;;;5096314;28;19939;-74
2022/10/10 08:37:41;;;;;;;;;;;12.80;99.90;;;;;;5100044;28;20329;-74
2022/10/10 08:40:09;;;;;;;;;;;12.70;99.90;;;;;;5106186;28;19966;-73
2022/10/10 08:42:39;;;;;;;;;;;12.70;99.90;;;;;;5093457;28;20021;-73
2022/10/10 08:45:10;;;;;;;;;;;12.60;99.90;;;;;;5105727;28;19907;-73
2022/10/10 08:47:35;;;;;;;;;;;12.60;99.90;;;;;;5081701;28;19924;-74
2022/10/10 08:50:05;;;;;;;;;;;12.70;99.90;;;;;;5104193;28;19966;-74
2022/10/10 08:52:52;;;;;;;;;;;12.70;99.90;;;;;;5098665;28;20204;-74
2022/10/10 08:55:21;;;;;;;;;;;12.70;99.90;;;;;;5100997;28;19919;-73
2022/10/10 08:57:54;;;;;;;;;;;12.70;99.90;;;;;;5096653;28;19923;-74
2022/10/10 09:00:21;;;;;;;;;;;12.80;99.90;;;;;;5099485;28;20006;-73
2022/10/10 09:02:48;;;;;;;;;;;12.80;99.90;;;;;;5099894;28;19912;-73
2022/10/10 09:05:16;;;;;;;;;;;12.80;99.90;;;;;;5098297;28;20279;-76
2022/10/10 09:08:00;;;;;;;;;;;12.80;99.90;;;;;;5107008;28;20241;-73
2022/10/10 09:10:38;;;;;;;;;;;12.90;99.90;;;;;;5098999;28;20562;-76
2022/10/10 09:13:16;;;;;;;;;;;12.90;99.90;;;;;;5073072;28;19974;-74
2022/10/10 09:15:54;;;;;;;;;;;12.90;99.90;;;;;;5092289;28;20218;-73
2022/10/10 09:18:20;;;;;;;;;;;13.00;99.90;;;;;;5104159;28;19912;-73
2022/10/10 09:21:03;;;;;;;;;;;13.00;99.90;;;;;;5106038;28;20011;-73
2022/10/10 09:23:31;;;;;;;;;;;13.00;99.90;;;;;;5094343;28;19916;-74
2022/10/10 09:26:05;;;;;;;;;;;13.00;99.90;;;;;;5103370;28;20352;-74
2022/10/10 09:28:39;;;;;;;;;;;13.00;99.90;;;;;;5093594;28;20311;-74
2022/10/10 09:31:09;;;;;;;;;;;13.10;99.90;;;;;;5085749;28;20008;-73
2022/10/10 09:33:35;;;;;;;;;;;13.10;99.90;;;;;;5097706;28;19912;-74
2022/10/10 09:36:03;;;;;;;;;;;13.20;99.90;;;;;;5077629;28;19912;-74
2022/10/10 09:38:32;;;;;;;;;;;13.20;99.90;;;;;;5077874;28;19923;-74
2022/10/10 09:41:04;;;;;;;;;;;13.20;99.90;;;;;;5092661;28;20319;-73
2022/10/10 09:43:31;;;;;;;;;;;13.20;99.90;;;;;;5107013;28;19916;-74
2022/10/10 09:45:57;;;;;;;;;;;13.30;99.90;;;;;;5100973;28;20394;-74
2022/10/10 09:48:33;;;;;;;;;;;13.30;99.90;;;;;;5098490;28;20007;-73
2022/10/10 09:51:03;;;;;;;;;;;13.40;99.90;;;;;;5085224;28;20314;-77
2022/10/10 09:53:29;;;;;;;;;;;13.50;99.90;;;;;;5079194;28;19911;-73
2022/10/10 09:55:54;;;;;;;;;;;13.50;99.90;;;;;;5081057;28;19916;-73
2022/10/10 09:58:19;;;;;;;;;;;13.50;99.90;;;;;;5104166;28;19954;-73
2022/10/10 10:00:45;;;;;;;;;;;13.50;99.90;;;;;;5078715;28;19970;-76
2022/10/10 10:03:15;;;;;;;;;;;13.60;99.90;;;;;;5099361;28;20246;-74
2022/10/10 10:05:44;;;;;;;;;;;13.70;99.90;;;;;;5097383;28;19912;-74
2022/10/10 10:08:23;;;;;;;;;;;13.90;99.90;;;;;;5106083;28;19927;-74
2022/10/10 10:10:49;;;;;;;;;;;14.10;99.90;;;;;;5089464;28;20296;-72
2022/10/10 10:13:19;;;;;;;;;;;14.20;99.90;;;;;;5098036;28;19998;-73
2022/10/10 10:15:51;;;;;;;;;;;14.30;99.90;;;;;;5104897;28;19908;-74
2022/10/10 10:18:16;;;;;;;;;;;14.30;99.90;;;;;;5101528;28;20313;-77
2022/10/10 10:20:43;;;;;;;;;;;14.30;99.90;;;;;;5100365;28;19923;-73
2022/10/10 10:23:25;;;;;;;;;;;14.30;99.90;;;;;;5106836;28;19957;-74
2022/10/10 10:25:58;;;;;;;;;;;14.40;99.90;;;;;;5112254;28;19908;-74
2022/10/10 10:28:24;;;;;;;;;;;14.40;99.90;;;;;;5108554;28;19919;-73
2022/10/10 10:30:52;;;;;;;;;;;14.50;99.90;;;;;;5107066;28;20287;-74
2022/10/10 10:33:23;;;;;;;;;;;14.50;99.90;;;;;;5083809;28;19947;-74
2022/10/10 10:35:57;;;;;;;;;;;14.50;99.90;;;;;;5107196;28;20277;-73
2022/10/10 10:38:28;;;;;;;;;;;14.50;99.90;;;;;;5088349;28;20314;-74
2022/10/10 10:41:26;;;;;;;;;;;14.50;99.90;;;;;;5112903;28;20299;-73
2022/10/10 10:43:55;;;;;;;;;;;14.40;99.90;;;;;;4997082;28;19956;-73
2022/10/10 10:46:39;;;;;;;;;;;14.40;99.90;;;;;;5005220;28;20962;-74
2022/10/10 10:49:15;;;;;;;;;;;14.30;99.90;;;;;;5004438;28;19937;-73
2022/10/10 10:51:49;;;;;;;;;;;14.20;99.90;;;;;;5007345;28;19928;-73
2022/10/10 10:54:24;;;;;;;;;;;14.20;99.90;;;;;;5005648;28;19968;-73
2022/10/10 10:56:52;;;;;;;;;;;14.20;99.90;;;;;;4991659;28;19921;-73
2022/10/10 10:59:29;;;;;;;;;;;14.10;99.90;;;;;;4999692;28;20378;-73
2022/10/10 11:01:57;;;;;;;;;;;14.20;99.90;;;;;;4996889;28;19925;-74
2022/10/10 11:04:22;;;;;;;;;;;14.30;99.90;;;;;;4997248;28;19964;-73
2022/10/10 11:07:03;;;;;;;;;;;14.40;99.90;;;;;;5005830;28;19941;-74
2022/10/10 11:09:38;;;;;;;;;;;14.40;99.90;;;;;;4996485;28;19918;-74
2022/10/10 11:12:03;;;;;;;;;;;14.40;99.90;;;;;;5001324;28;20355;-74
2022/10/10 11:14:43;;;;;;;;;;;14.50;99.90;;;;;;4992361;28;20003;-74
2022/10/10 11:17:18;;;;;;;;;;;14.50;99.90;;;;;;5003143;28;19960;-74
2022/10/10 11:19:55;;;;;;;;;;;14.50;99.90;;;;;;5059187;28;19918;-73
2022/10/10 11:22:32;;;;;;;;;;;14.50;99.90;;;;;;5079405;28;19920;-74
2022/10/10 11:24:58;;;;;;;;;;;14.40;99.90;;;;;;5094748;28;19912;-75
2022/10/10 11:27:23;;;;;;;;;;;14.40;99.90;;;;;;5105855;28;19911;-74
2022/10/10 11:30:08;;;;;;;;;;;14.40;99.90;;;;;;5077924;28;20246;-75
2022/10/10 11:32:40;;;;;;;;;;;14.30;99.90;;;;;;5101126;28;19923;-74
2022/10/10 11:35:12;;;;;;;;;;;14.30;99.90;;;;;;5107764;28;19908;-75
2022/10/10 11:37:40;;;;;;;;;;;14.20;99.90;;;;;;5100666;28;21156;-76
2022/10/10 11:40:06;;;;;;;;;;;14.20;99.90;;;;;;5105181;28;20069;-75
2022/10/10 11:42:34;;;;;;;;;;;14.10;99.90;;;;;;5098632;28;20494;-75
2022/10/10 11:45:03;;;;;;;;;;;14.10;99.90;;;;;;5103944;28;19912;-76
2022/10/10 11:47:34;;;;;;;;;;;14.10;99.90;;;;;;5092346;28;19966;-76
2022/10/10 11:50:17;;;;;;;;;;;14.10;99.90;;;;;;5079700;28;19919;-75
2022/10/10 11:52:59;;;;;;;;;;;14.10;99.90;;;;;;5102087;28;19915;-75
2022/10/10 11:55:25;;;;;;;;;;;14.00;99.90;;;;;;5105738;28;19911;-75
2022/10/10 11:57:54;;;;;;;;;;;14.10;99.90;;;;;;5106847;28;19923;-75
2022/10/10 12:00:19;;;;;;;;;;;14.10;99.90;;;;;;5102279;28;19907;-74
2022/10/10 12:02:46;;;;;;;;;;;14.10;99.90;;;;;;5086918;28;19924;-75
2022/10/10 12:05:34;;;;;;;;;;;14.20;99.90;;;;;;5070107;28;20024;-75
2022/10/10 12:08:19;;;;;;;;;;;14.20;99.90;;;;;;5096473;28;19935;-76
2022/10/10 12:10:53;;;;;;;;;;;14.30;99.90;;;;;;5076582;28;20334;-76
2022/10/10 12:13:22;;;;;;;;;;;14.40;99.90;;;;;;5070005;28;19916;-74
2022/10/10 12:15:49;;;;;;;;;;;14.50;99.90;;;;;;5081181;28;19912;-75
2022/10/10 12:18:26;;;;;;;;;;;14.60;99.90;;;;;;5092039;28;20003;-75
2022/10/10 12:21:09;;;;;;;;;;;14.50;99.90;;;;;;5092312;28;19916;-75
2022/10/10 12:23:35;;;;;;;;;;;14.50;99.90;;;;;;5089334;28;20335;-75
2022/10/10 12:26:01;;;;;;;;;;;14.50;99.90;;;;;;5072335;28;19959;-74
2022/10/10 12:28:32;;;;;;;;;;;14.50;99.90;;;;;;5073628;28;19954;-74
2022/10/10 12:31:03;;;;;;;;;;;14.50;99.90;;;;;;5076381;28;20379;-75
2022/10/10 12:33:32;;;;;;;;;;;14.40;99.90;;;;;;5095016;28;19912;-74
2022/10/10 12:36:17;;;;;;;;;;;14.40;99.90;;;;;;5078834;28;19912;-75
2022/10/10 12:39:07;;;;;;;;;;;14.40;99.90;;;;;;5086282;28;19919;-77
2022/10/10 12:41:41;;;;;;;;;;;14.40;99.90;;;;;;5099033;28;20008;-75
2022/10/10 12:44:13;;;;;;;;;;;14.40;99.90;;;;;;5079471;28;19912;-74
2022/10/10 12:46:39;;;;;;;;;;;14.40;99.90;;;;;;5094634;28;19912;-73
2022/10/10 12:49:18;;;;;;;;;;;14.30;99.90;;;;;;5098360;28;20273;-74
2022/10/10 12:51:57;;;;;;;;;;;14.30;99.90;;;;;;5096551;28;19908;-73
2022/10/10 12:54:27;;;;;;;;;;;14.30;99.90;;;;;;5095365;28;19912;-74
2022/10/10 12:56:59;;;;;;;;;;;14.30;99.90;;;;;;5099569;28;19915;-75
2022/10/10 12:59:25;;;;;;;;;;;14.30;99.90;;;;;;5099849;28;19947;-73
2022/10/10 13:02:02;;;;;;;;;;;14.30;99.90;;;;;;5077659;28;20350;-73
2022/10/10 13:04:27;;;;;;;;;;;14.20;99.90;;;;;;5098611;28;19962;-76
2022/10/10 13:06:57;;;;;;;;;;;14.20;99.90;;;;;;5100515;28;19912;-75
2022/10/10 13:09:30;;;;;;;;;;;13.70;99.90;;;;;;5074273;28;19930;-76
2022/10/10 13:11:57;;;;;;;;;;;13.30;99.90;;;;;;5108208;28;19957;-72
2022/10/10 13:14:23;;;;;;;;;;;13.00;99.90;;;;;;5073483;28;20249;-72
2022/10/10 13:16:48;;;;;;;;;;;12.90;99.90;;;;;;5103589;28;19916;-75
2022/10/10 13:19:37;;;;;;;;;;;12.80;99.90;;;;;;5104682;28;19978;-72
2022/10/10 13:22:02;;;;;;;;;;;12.70;99.90;;;;;;5079745;28;19982;-73
2022/10/10 13:24:30;;;;;;;;;;;12.70;99.90;;;;;;5094843;28;19916;-71
2022/10/10 13:26:56;;;;;;;;;;;12.80;99.90;;;;;;5095691;28;19908;-72
2022/10/10 13:29:24;;;;;;;;;;;12.80;99.90;;;;;;5093026;28;19965;-73
2022/10/10 13:31:51;;;;;;;;;;;12.80;99.90;;;;;;5087220;28;19912;-72
2022/10/10 13:34:21;;;;;;;;;;;12.70;99.90;;;;;;5095653;28;20217;-72
2022/10/10 13:36:47;;;;;;;;;;;12.80;99.90;;;;;;5086985;28;20370;-77
2022/10/10 13:39:16;;;;;;;;;;;12.80;99.90;;;;;;5085664;28;19957;-71
2022/10/10 13:41:46;;;;;;;;;;;12.80;99.90;;;;;;5094591;28;19912;-73
2022/10/10 13:44:19;;;;;;;;;;;12.80;99.90;;;;;;5074693;28;19923;-73
2022/10/10 13:46:45;;;;;;;;;;;12.60;99.90;;;;;;5106347;28;19914;-72
2022/10/10 13:49:22;;;;;;;;;;;12.50;99.90;;;;;;5079642;28;20247;-72
2022/10/10 13:51:58;;;;;;;;;;;12.50;99.90;;;;;;5097067;28;19955;-71
2022/10/10 13:54:43;;;;;;;;;;;12.40;99.90;;;;;;5102644;28;19911;-72
2022/10/10 13:57:14;;;;;;;;;;;12.40;99.90;;;;;;5106986;28;19960;-70
2022/10/10 13:59:40;;;;;;;;;;;12.50;99.90;;;;;;5092856;28;19911;-71
2022/10/10 14:02:28;;;;;;;;;;;12.50;99.90;;;;;;5101717;28;20363;-71
2022/10/10 14:04:53;;;;;;;;;;;12.50;99.90;;;;;;5065440;28;20002;-70
2022/10/10 14:07:21;;;;;;;;;;;12.50;99.90;;;;;;5094883;28;20117;-70
2022/10/10 14:10:07;;;;;;;;;;;12.60;99.90;;;;;;5095976;28;19920;-71
2022/10/10 14:12:34;;;;;;;;;;;12.70;99.90;;;;;;5088137;28;19916;-73
2022/10/10 14:15:00;;;;;;;;;;;12.80;99.90;;;;;;5105457;28;19916;-70
2022/10/10 14:17:27;;;;;;;;;;;12.80;99.90;;;;;;5091957;28;20303;-70
2022/10/10 14:19:53;;;;;;;;;;;12.90;99.90;;;;;;5104780;28;20252;-71
2022/10/10 14:22:19;;;;;;;;;;;12.90;99.90;;;;;;5088438;28;19928;-70
2022/10/10 14:24:44;;;;;;;;;;;13.10;99.90;;;;;;5103857;28;19965;-73
2022/10/10 14:27:14;;;;;;;;;;;13.10;99.90;;;;;;5098771;28;19916;-71
2022/10/10 14:29:40;;;;;;;;;;;13.20;99.90;;;;;;5102000;28;20239;-75
2022/10/10 14:32:05;;;;;;;;;;;13.30;99.90;;;;;;5094291;28;19915;-72